Terminal Aerodrome Forecast
Issued by NWS

Home | Current Version | Previous Version | Text Only | Print | Product List | Glossary Off
Versions: 1 2 3 4 5 6 7 8 9 10 11 12 13 14 15 16 17 18 19 20 21 22

412
FTUS41 KCLE 151601 AAA
TAFFDY
TAF AMD
KFDY 151601Z 1516/1612 09003KT 5SM HZ BKN250
     FM151800 10003KT P6SM BKN250=

USA.gov is the U.S. government's official web portal to all federal, state and local government web resources and services.